sensor_id;sensor_type;location;lat;lon;timestamp;temperature;humidity
75164;HTU21D;63746;45.402;37.922;2022-12-29T00:02:11;4.47;75.25
75164;HTU21D;63746;45.402;37.922;2022-12-29T00:04:37;4.48;75.32
75164;HTU21D;63746;45.402;37.922;2022-12-29T00:07:03;4.47;75.41
75164;HTU21D;63746;45.402;37.922;2022-12-29T00:09:30;4.48;75.44
75164;HTU21D;63746;45.402;37.922;2022-12-29T00:11:57;4.47;75.44
75164;HTU21D;63746;45.402;37.922;2022-12-29T00:14:23;4.47;75.48
75164;HTU21D;63746;45.402;37.922;2022-12-29T00:17:08;4.48;75.50
75164;HTU21D;63746;45.402;37.922;2022-12-29T00:19:34;4.46;75.37
75164;HTU21D;63746;45.402;37.922;2022-12-29T00:22:19;4.41;75.17
75164;HTU21D;63746;45.402;37.922;2022-12-29T00:25:04;4.36;75.22
75164;HTU21D;63746;45.402;37.922;2022-12-29T00:27:48;4.34;75.27
75164;HTU21D;63746;45.402;37.922;2022-12-29T00:30:33;4.32;75.24
75164;HTU21D;63746;45.402;37.922;2022-12-29T00:33:19;4.28;75.22
75164;HTU21D;63746;45.402;37.922;2022-12-29T00:38:35;4.23;75.29
75164;HTU21D;63746;45.402;37.922;2022-12-29T00:41:21;4.22;75.31
75164;HTU21D;63746;45.402;37.922;2022-12-29T00:44:06;4.20;75.25
75164;HTU21D;63746;45.402;37.922;2022-12-29T00:46:40;4.18;75.25
75164;HTU21D;63746;45.402;37.922;2022-12-29T00:49:08;4.15;75.23
75164;HTU21D;63746;45.402;37.922;2022-12-29T00:51:54;4.13;75.22
75164;HTU21D;63746;45.402;37.922;2022-12-29T00:54:20;4.10;75.23
75164;HTU21D;63746;45.402;37.922;2022-12-29T00:56:52;4.09;75.28
75164;HTU21D;63746;45.402;37.922;2022-12-29T00:59:18;4.08;75.30
75164;HTU21D;63746;45.402;37.922;2022-12-29T01:01:45;4.07;75.31
75164;HTU21D;63746;45.402;37.922;2022-12-29T01:04:12;4.07;75.27
75164;HTU21D;63746;45.402;37.922;2022-12-29T01:06:39;4.04;75.15
75164;HTU21D;63746;45.402;37.922;2022-12-29T01:09:08;4.00;75.09
75164;HTU21D;63746;45.402;37.922;2022-12-29T01:11:53;3.93;75.04
75164;HTU21D;63746;45.402;37.922;2022-12-29T01:14:19;3.89;75.05
75164;HTU21D;63746;45.402;37.922;2022-12-29T01:16:45;3.87;75.11
75164;HTU21D;63746;45.402;37.922;2022-12-29T01:19:13;3.85;75.25
75164;HTU21D;63746;45.402;37.922;2022-12-29T01:21:39;3.84;75.35
75164;HTU21D;63746;45.402;37.922;2022-12-29T01:24:05;3.86;75.43
75164;HTU21D;63746;45.402;37.922;2022-12-29T01:26:31;3.86;75.44
75164;HTU21D;63746;45.402;37.922;2022-12-29T01:28:57;3.85;75.46
75164;HTU21D;63746;45.402;37.922;2022-12-29T01:31:23;3.84;75.43
75164;HTU21D;63746;45.402;37.922;2022-12-29T01:33:49;3.83;75.41
75164;HTU21D;63746;45.402;37.922;2022-12-29T01:36:16;3.82;75.42
75164;HTU21D;63746;45.402;37.922;2022-12-29T01:38:43;3.80;75.46
75164;HTU21D;63746;45.402;37.922;2022-12-29T01:41:11;3.80;75.50
75164;HTU21D;63746;45.402;37.922;2022-12-29T01:43:49;3.80;75.51
75164;HTU21D;63746;45.402;37.922;2022-12-29T01:46:26;3.80;75.40
75164;HTU21D;63746;45.402;37.922;2022-12-29T01:49:19;3.74;75.18
75164;HTU21D;63746;45.402;37.922;2022-12-29T01:51:53;3.67;75.14
75164;HTU21D;63746;45.402;37.922;2022-12-29T01:54:29;3.63;75.19
75164;HTU21D;63746;45.402;37.922;2022-12-29T01:56:59;3.60;75.33
75164;HTU21D;63746;45.402;37.922;2022-12-29T01:59:31;3.58;75.41
75164;HTU21D;63746;45.402;37.922;2022-12-29T02:01:58;3.59;75.47
75164;HTU21D;63746;45.402;37.922;2022-12-29T02:04:26;3.59;75.49
75164;HTU21D;63746;45.402;37.922;2022-12-29T02:07:19;3.58;75.47
75164;HTU21D;63746;45.402;37.922;2022-12-29T02:09:52;3.57;75.46
75164;HTU21D;63746;45.402;37.922;2022-12-29T02:12:21;3.56;75.34
75164;HTU21D;63746;45.402;37.922;2022-12-29T02:14:50;3.52;75.31
75164;HTU21D;63746;45.402;37.922;2022-12-29T02:20:11;3.47;75.27
75164;HTU21D;63746;45.402;37.922;2022-12-29T02:26:02;3.36;75.20
75164;HTU21D;63746;45.402;37.922;2022-12-29T02:28:41;3.33;75.23
75164;HTU21D;63746;45.402;37.922;2022-12-29T02:39:42;3.25;75.50
75164;HTU21D;63746;45.402;37.922;2022-12-29T02:48:04;3.23;75.34
75164;HTU21D;63746;45.402;37.922;2022-12-29T02:50:39;3.17;75.21
75164;HTU21D;63746;45.402;37.922;2022-12-29T02:53:08;3.13;75.25
75164;HTU21D;63746;45.402;37.922;2022-12-29T02:55:35;3.11;75.36
75164;HTU21D;63746;45.402;37.922;2022-12-29T02:58:17;3.12;75.41
75164;HTU21D;63746;45.402;37.922;2022-12-29T03:12:12;2.97;75.26
75164;HTU21D;63746;45.402;37.922;2022-12-29T03:14:49;2.93;75.27
75164;HTU21D;63746;45.402;37.922;2022-12-29T03:17:58;2.90;75.39
75164;HTU21D;63746;45.402;37.922;2022-12-29T03:20:31;2.88;75.32
75164;HTU21D;63746;45.402;37.922;2022-12-29T03:23:03;2.83;75.27
75164;HTU21D;63746;45.402;37.922;2022-12-29T03:25:38;2.79;75.34
75164;HTU21D;63746;45.402;37.922;2022-12-29T03:28:13;2.76;75.41
75164;HTU21D;63746;45.402;37.922;2022-12-29T03:30:44;2.74;75.46
75164;HTU21D;63746;45.402;37.922;2022-12-29T03:33:16;2.73;75.47
75164;HTU21D;63746;45.402;37.922;2022-12-29T03:35:46;2.72;75.54
75164;HTU21D;63746;45.402;37.922;2022-12-29T03:39:11;2.73;75.62
75164;HTU21D;63746;45.402;37.922;2022-12-29T03:41:41;2.75;75.77
75164;HTU21D;63746;45.402;37.922;2022-12-29T03:44:11;2.76;75.73
75164;HTU21D;63746;45.402;37.922;2022-12-29T03:46:38;2.74;75.49
75164;HTU21D;63746;45.402;37.922;2022-12-29T03:49:04;2.70;75.38
75164;HTU21D;63746;45.402;37.922;2022-12-29T03:51:30;2.67;75.44
75164;HTU21D;63746;45.402;37.922;2022-12-29T03:53:56;2.67;75.60
75164;HTU21D;63746;45.402;37.922;2022-12-29T03:56:22;2.69;75.68
75164;HTU21D;63746;45.402;37.922;2022-12-29T03:58:49;2.70;75.71
75164;HTU21D;63746;45.402;37.922;2022-12-29T04:01:20;2.71;75.66
75164;HTU21D;63746;45.402;37.922;2022-12-29T04:03:46;2.71;75.58
75164;HTU21D;63746;45.402;37.922;2022-12-29T04:06:12;2.70;75.52
75164;HTU21D;63746;45.402;37.922;2022-12-29T04:08:45;2.68;75.51
75164;HTU21D;63746;45.402;37.922;2022-12-29T04:11:11;2.68;75.46
75164;HTU21D;63746;45.402;37.922;2022-12-29T04:13:38;2.66;75.38
75164;HTU21D;63746;45.402;37.922;2022-12-29T04:16:08;2.61;75.28
75164;HTU21D;63746;45.402;37.922;2022-12-29T04:18:35;2.58;75.32
75164;HTU21D;63746;45.402;37.922;2022-12-29T04:21:01;2.58;75.44
75164;HTU21D;63746;45.402;37.922;2022-12-29T04:23:35;2.59;75.47
75164;HTU21D;63746;45.402;37.922;2022-12-29T04:26:04;2.58;75.51
75164;HTU21D;63746;45.402;37.922;2022-12-29T04:28:35;2.56;75.50
75164;HTU21D;63746;45.402;37.922;2022-12-29T04:31:24;2.55;75.41
75164;HTU21D;63746;45.402;37.922;2022-12-29T04:33:50;2.50;75.25
75164;HTU21D;63746;45.402;37.922;2022-12-29T04:36:16;2.46;75.31
75164;HTU21D;63746;45.402;37.922;2022-12-29T04:38:42;2.46;75.47
75164;HTU21D;63746;45.402;37.922;2022-12-29T04:41:08;2.47;75.51
75164;HTU21D;63746;45.402;37.922;2022-12-29T04:43:37;2.45;75.36
75164;HTU21D;63746;45.402;37.922;2022-12-29T04:46:03;2.42;75.31
75164;HTU21D;63746;45.402;37.922;2022-12-29T04:48:37;2.39;75.41
75164;HTU21D;63746;45.402;37.922;2022-12-29T04:51:17;2.37;75.46
75164;HTU21D;63746;45.402;37.922;2022-12-29T04:53:44;2.37;75.47
75164;HTU21D;63746;45.402;37.922;2022-12-29T04:56:10;2.37;75.49
75164;HTU21D;63746;45.402;37.922;2022-12-29T04:58:36;2.35;75.51
75164;HTU21D;63746;45.402;37.922;2022-12-29T05:01:02;2.35;75.41
75164;HTU21D;63746;45.402;37.922;2022-12-29T05:03:29;2.32;75.39
75164;HTU21D;63746;45.402;37.922;2022-12-29T05:05:56;2.31;75.46
75164;HTU21D;63746;45.402;37.922;2022-12-29T05:08:23;2.31;75.62
75164;HTU21D;63746;45.402;37.922;2022-12-29T05:10:52;2.32;75.73
75164;HTU21D;63746;45.402;37.922;2022-12-29T05:13:19;2.35;75.72
75164;HTU21D;63746;45.402;37.922;2022-12-29T05:15:53;2.36;75.69
75164;HTU21D;63746;45.402;37.922;2022-12-29T05:18:21;2.36;75.67
75164;HTU21D;63746;45.402;37.922;2022-12-29T05:20:48;2.36;75.70
75164;HTU21D;63746;45.402;37.922;2022-12-29T05:23:14;2.39;75.78
75164;HTU21D;63746;45.402;37.922;2022-12-29T05:25:43;2.40;75.82
75164;HTU21D;63746;45.402;37.922;2022-12-29T05:28:30;2.42;75.77
75164;HTU21D;63746;45.402;37.922;2022-12-29T05:31:01;2.44;75.79
75164;HTU21D;63746;45.402;37.922;2022-12-29T05:33:29;2.45;75.82
75164;HTU21D;63746;45.402;37.922;2022-12-29T05:35:55;2.47;75.83
75164;HTU21D;63746;45.402;37.922;2022-12-29T05:38:22;2.51;75.77
75164;HTU21D;63746;45.402;37.922;2022-12-29T05:40:48;2.52;75.82
75164;HTU21D;63746;45.402;37.922;2022-12-29T05:43:35;2.55;75.80
75164;HTU21D;63746;45.402;37.922;2022-12-29T05:46:19;2.58;75.81
75164;HTU21D;63746;45.402;37.922;2022-12-29T05:49:04;2.58;75.73
75164;HTU21D;63746;45.402;37.922;2022-12-29T05:51:48;2.59;75.76
75164;HTU21D;63746;45.402;37.922;2022-12-29T05:54:14;2.62;75.85
75164;HTU21D;63746;45.402;37.922;2022-12-29T05:56:42;2.66;75.97
75164;HTU21D;63746;45.402;37.922;2022-12-29T05:59:08;2.69;75.99
75164;HTU21D;63746;45.402;37.922;2022-12-29T06:01:34;2.73;75.92
75164;HTU21D;63746;45.402;37.922;2022-12-29T06:04:00;2.74;75.83
75164;HTU21D;63746;45.402;37.922;2022-12-29T06:06:26;2.78;75.79
75164;HTU21D;63746;45.402;37.922;2022-12-29T06:08:52;2.79;75.82
75164;HTU21D;63746;45.402;37.922;2022-12-29T06:11:19;2.82;75.93
75164;HTU21D;63746;45.402;37.922;2022-12-29T06:13:51;2.86;76.01
75164;HTU21D;63746;45.402;37.922;2022-12-29T06:16:17;2.91;76.05
75164;HTU21D;63746;45.402;37.922;2022-12-29T06:18:45;2.97;76.09
75164;HTU21D;63746;45.402;37.922;2022-12-29T06:21:11;3.03;76.15
75164;HTU21D;63746;45.402;37.922;2022-12-29T06:23:37;3.09;76.15
75164;HTU21D;63746;45.402;37.922;2022-12-29T06:26:03;3.14;76.18
75164;HTU21D;63746;45.402;37.922;2022-12-29T06:28:30;3.20;76.21
75164;HTU21D;63746;45.402;37.922;2022-12-29T06:30:55;3.27;76.22
75164;HTU21D;63746;45.402;37.922;2022-12-29T06:33:23;3.33;76.15
75164;HTU21D;63746;45.402;37.922;2022-12-29T06:35:49;3.35;76.10
75164;HTU21D;63746;45.402;37.922;2022-12-29T06:38:15;3.40;76.17
75164;HTU21D;63746;45.402;37.922;2022-12-29T06:40:42;3.47;76.21
75164;HTU21D;63746;45.402;37.922;2022-12-29T06:43:19;3.53;76.21
75164;HTU21D;63746;45.402;37.922;2022-12-29T06:46:07;3.58;76.14
75164;HTU21D;63746;45.402;37.922;2022-12-29T06:59:32;4.92;74.16
75164;HTU21D;63746;45.402;37.922;2022-12-29T07:01:58;4.92;74.36
75164;HTU21D;63746;45.402;37.922;2022-12-29T07:04:24;4.88;74.53
75164;HTU21D;63746;45.402;37.922;2022-12-29T07:06:50;4.82;74.76
75164;HTU21D;63746;45.402;37.922;2022-12-29T07:09:16;4.75;74.92
75164;HTU21D;63746;45.402;37.922;2022-12-29T07:11:42;4.73;75.28
75164;HTU21D;63746;45.402;37.922;2022-12-29T07:14:08;4.74;75.67
75164;HTU21D;63746;45.402;37.922;2022-12-29T07:16:34;4.77;75.81
75164;HTU21D;63746;45.402;37.922;2022-12-29T07:19:00;4.78;75.86
75164;HTU21D;63746;45.402;37.922;2022-12-29T07:21:25;4.81;76.10
75164;HTU21D;63746;45.402;37.922;2022-12-29T07:23:51;4.89;76.33
75164;HTU21D;63746;45.402;37.922;2022-12-29T07:26:19;4.96;76.27
75164;HTU21D;63746;45.402;37.922;2022-12-29T07:28:45;5.00;76.21
75164;HTU21D;63746;45.402;37.922;2022-12-29T07:31:18;5.06;76.41
75164;HTU21D;63746;45.402;37.922;2022-12-29T07:33:45;5.15;76.47
75164;HTU21D;63746;45.402;37.922;2022-12-29T07:36:12;5.19;76.34
75164;HTU21D;63746;45.402;37.922;2022-12-29T07:38:38;5.23;76.23
75164;HTU21D;63746;45.402;37.922;2022-12-29T07:41:04;5.26;76.28
75164;HTU21D;63746;45.402;37.922;2022-12-29T07:43:30;5.33;76.39
75164;HTU21D;63746;45.402;37.922;2022-12-29T07:46:14;5.39;76.44
75164;HTU21D;63746;45.402;37.922;2022-12-29T07:48:40;5.46;76.48
75164;HTU21D;63746;45.402;37.922;2022-12-29T07:51:06;5.54;76.55
75164;HTU21D;63746;45.402;37.922;2022-12-29T07:53:32;5.62;76.54
75164;HTU21D;63746;45.402;37.922;2022-12-29T07:55:58;5.71;76.58
75164;HTU21D;63746;45.402;37.922;2022-12-29T07:58:24;5.80;76.62
75164;HTU21D;63746;45.402;37.922;2022-12-29T08:00:56;5.84;76.34
75164;HTU21D;63746;45.402;37.922;2022-12-29T08:03:22;5.87;76.31
75164;HTU21D;63746;45.402;37.922;2022-12-29T08:05:49;5.90;76.15
75164;HTU21D;63746;45.402;37.922;2022-12-29T08:08:15;5.92;76.15
75164;HTU21D;63746;45.402;37.922;2022-12-29T08:10:41;5.95;76.19
75164;HTU21D;63746;45.402;37.922;2022-12-29T08:13:07;5.99;76.12
75164;HTU21D;63746;45.402;37.922;2022-12-29T08:15:33;6.05;76.19
75164;HTU21D;63746;45.402;37.922;2022-12-29T08:17:59;6.12;76.35
75164;HTU21D;63746;45.402;37.922;2022-12-29T08:20:25;6.24;76.67
75164;HTU21D;63746;45.402;37.922;2022-12-29T08:22:51;6.37;76.72
75164;HTU21D;63746;45.402;37.922;2022-12-29T08:25:17;6.43;76.28
75164;HTU21D;63746;45.402;37.922;2022-12-29T08:27:45;6.44;76.13
75164;HTU21D;63746;45.402;37.922;2022-12-29T08:30:11;6.49;76.11
75164;HTU21D;63746;45.402;37.922;2022-12-29T08:32:37;6.51;75.97
75164;HTU21D;63746;45.402;37.922;2022-12-29T08:35:03;6.56;76.09
75164;HTU21D;63746;45.402;37.922;2022-12-29T08:37:31;6.66;76.27
75164;HTU21D;63746;45.402;37.922;2022-12-29T08:39:57;6.73;76.28
75164;HTU21D;63746;45.402;37.922;2022-12-29T08:42:24;6.81;76.22
75164;HTU21D;63746;45.402;37.922;2022-12-29T08:44:54;6.87;76.13
75164;HTU21D;63746;45.402;37.922;2022-12-29T08:47:20;6.91;76.03
75164;HTU21D;63746;45.402;37.922;2022-12-29T08:49:46;6.93;75.73
75164;HTU21D;63746;45.402;37.922;2022-12-29T08:52:12;6.91;75.68
75164;HTU21D;63746;45.402;37.922;2022-12-29T08:54:37;6.94;75.69
75164;HTU21D;63746;45.402;37.922;2022-12-29T08:57:04;6.97;75.76
75164;HTU21D;63746;45.402;37.922;2022-12-29T08:59:37;7.01;75.76
75164;HTU21D;63746;45.402;37.922;2022-12-29T09:02:03;7.01;75.65
75164;HTU21D;63746;45.402;37.922;2022-12-29T09:04:29;7.02;75.65
75164;HTU21D;63746;45.402;37.922;2022-12-29T09:06:55;7.03;75.58
75164;HTU21D;63746;45.402;37.922;2022-12-29T09:09:21;7.03;75.57
75164;HTU21D;63746;45.402;37.922;2022-12-29T09:11:47;7.05;75.60
75164;HTU21D;63746;45.402;37.922;2022-12-29T09:14:13;7.07;75.57
75164;HTU21D;63746;45.402;37.922;2022-12-29T09:16:40;7.09;75.60
75164;HTU21D;63746;45.402;37.922;2022-12-29T09:19:24;7.12;75.57
75164;HTU21D;63746;45.402;37.922;2022-12-29T09:21:50;7.14;75.61
75164;HTU21D;63746;45.402;37.922;2022-12-29T09:24:16;7.22;75.77
75164;HTU21D;63746;45.402;37.922;2022-12-29T09:26:42;7.27;75.79
75164;HTU21D;63746;45.402;37.922;2022-12-29T09:29:08;7.34;75.70
75164;HTU21D;63746;45.402;37.922;2022-12-29T09:31:34;7.35;75.48
75164;HTU21D;63746;45.402;37.922;2022-12-29T09:34:00;7.38;75.48
75164;HTU21D;63746;45.402;37.922;2022-12-29T09:36:26;7.38;75.34
75164;HTU21D;63746;45.402;37.922;2022-12-29T09:38:53;7.37;75.29
75164;HTU21D;63746;45.402;37.922;2022-12-29T09:41:38;7.39;75.14
75164;HTU21D;63746;45.402;37.922;2022-12-29T09:44:20;7.39;75.25
75164;HTU21D;63746;45.402;37.922;2022-12-29T09:46:51;7.42;75.31
75164;HTU21D;63746;45.402;37.922;2022-12-29T09:52:30;7.48;75.30
75164;HTU21D;63746;45.402;37.922;2022-12-29T09:55:19;7.56;75.54
75164;HTU21D;63746;45.402;37.922;2022-12-29T09:57:54;7.62;75.41
75164;HTU21D;63746;45.402;37.922;2022-12-29T10:00:36;7.70;75.56
75164;HTU21D;63746;45.402;37.922;2022-12-29T10:03:16;7.81;75.50
75164;HTU21D;63746;45.402;37.922;2022-12-29T10:08:44;7.89;75.16
75164;HTU21D;63746;45.402;37.922;2022-12-29T10:14:40;8.04;75.09
75164;HTU21D;63746;45.402;37.922;2022-12-29T10:17:30;8.05;74.76
75164;HTU21D;63746;45.402;37.922;2022-12-29T10:25:25;8.11;75.07
75164;HTU21D;63746;45.402;37.922;2022-12-29T10:27:54;8.14;75.10
75164;HTU21D;63746;45.402;37.922;2022-12-29T10:30:22;8.15;74.96
75164;HTU21D;63746;45.402;37.922;2022-12-29T10:32:56;8.16;74.78
75164;HTU21D;63746;45.402;37.922;2022-12-29T10:35:32;8.14;74.70
75164;HTU21D;63746;45.402;37.922;2022-12-29T10:38:09;8.09;74.67
75164;HTU21D;63746;45.402;37.922;2022-12-29T10:45:42;8.19;75.02
75164;HTU21D;63746;45.402;37.922;2022-12-29T10:48:19;8.28;75.09
75164;HTU21D;63746;45.402;37.922;2022-12-29T10:50:48;8.37;75.14
75164;HTU21D;63746;45.402;37.922;2022-12-29T10:53:27;8.46;75.06
75164;HTU21D;63746;45.402;37.922;2022-12-29T10:55:55;8.56;75.13
75164;HTU21D;63746;45.402;37.922;2022-12-29T10:58:22;8.61;75.15
75164;HTU21D;63746;45.402;37.922;2022-12-29T11:00:52;8.71;75.12
75164;HTU21D;63746;45.402;37.922;2022-12-29T11:06:49;8.80;74.76
75164;HTU21D;63746;45.402;37.922;2022-12-29T11:09:21;8.81;74.60
75164;HTU21D;63746;45.402;37.922;2022-12-29T11:11:48;8.85;74.79
75164;HTU21D;63746;45.402;37.922;2022-12-29T11:14:20;8.93;74.98
75164;HTU21D;63746;45.402;37.922;2022-12-29T11:17:01;9.00;74.64
75164;HTU21D;63746;45.402;37.922;2022-12-29T11:19:30;9.04;74.82
75164;HTU21D;63746;45.402;37.922;2022-12-29T11:22:24;9.11;74.40
75164;HTU21D;63746;45.402;37.922;2022-12-29T11:24:52;9.11;74.37
75164;HTU21D;63746;45.402;37.922;2022-12-29T11:27:21;9.06;74.25
75164;HTU21D;63746;45.402;37.922;2022-12-29T11:29:53;9.02;74.22
75164;HTU21D;63746;45.402;37.922;2022-12-29T11:32:27;8.98;74.15
75164;HTU21D;63746;45.402;37.922;2022-12-29T11:34:56;8.94;74.20
75164;HTU21D;63746;45.402;37.922;2022-12-29T11:37:43;8.89;73.73
75164;HTU21D;63746;45.402;37.922;2022-12-29T11:40:19;8.82;73.88
75164;HTU21D;63746;45.402;37.922;2022-12-29T11:42:55;8.76;73.93
75164;HTU21D;63746;45.402;37.922;2022-12-29T11:45:45;8.71;73.68
75164;HTU21D;63746;45.402;37.922;2022-12-29T11:48:20;8.64;73.91
75164;HTU21D;63746;45.402;37.922;2022-12-29T11:50:54;8.58;74.13
75164;HTU21D;63746;45.402;37.922;2022-12-29T11:53:24;8.52;74.17
75164;HTU21D;63746;45.402;37.922;2022-12-29T11:56:00;8.48;74.16
75164;HTU21D;63746;45.402;37.922;2022-12-29T11:58:32;8.45;74.24
75164;HTU21D;63746;45.402;37.922;2022-12-29T12:01:15;8.41;74.29
75164;HTU21D;63746;45.402;37.922;2022-12-29T12:06:27;8.35;74.31
75164;HTU21D;63746;45.402;37.922;2022-12-29T12:08:57;8.31;74.34
75164;HTU21D;63746;45.402;37.922;2022-12-29T12:11:29;8.28;74.34
75164;HTU21D;63746;45.402;37.922;2022-12-29T12:17:18;8.22;74.37
75164;HTU21D;63746;45.402;37.922;2022-12-29T12:19:46;8.20;74.36
75164;HTU21D;63746;45.402;37.922;2022-12-29T12:24:53;8.13;74.26
75164;HTU21D;63746;45.402;37.922;2022-12-29T12:27:24;8.08;74.41
75164;HTU21D;63746;45.402;37.922;2022-12-29T12:29:59;8.07;74.56
75164;HTU21D;63746;45.402;37.922;2022-12-29T12:35:36;8.07;74.48
75164;HTU21D;63746;45.402;37.922;2022-12-29T12:40:53;8.04;74.44
75164;HTU21D;63746;45.402;37.922;2022-12-29T12:43:41;8.02;74.34
75164;HTU21D;63746;45.402;37.922;2022-12-29T12:52:22;8.04;74.52
75164;HTU21D;63746;45.402;37.922;2022-12-29T12:57:42;8.05;74.67
75164;HTU21D;63746;45.402;37.922;2022-12-29T13:00:11;8.06;74.67
75164;HTU21D;63746;45.402;37.922;2022-12-29T13:05:56;8.09;74.39
75164;HTU21D;63746;45.402;37.922;2022-12-29T13:08:36;8.08;74.43
75164;HTU21D;63746;45.402;37.922;2022-12-29T13:11:20;8.06;74.31
75164;HTU21D;63746;45.402;37.922;2022-12-29T13:22:30;7.98;74.22
75164;HTU21D;63746;45.402;37.922;2022-12-29T13:25:15;7.93;74.31
75164;HTU21D;63746;45.402;37.922;2022-12-29T13:33:40;7.79;74.31
75164;HTU21D;63746;45.402;37.922;2022-12-29T13:36:30;7.76;74.25
75164;HTU21D;63746;45.402;37.922;2022-12-29T13:39:13;7.69;74.30
75164;HTU21D;63746;45.402;37.922;2022-12-29T13:41:54;7.67;74.35
75164;HTU21D;63746;45.402;37.922;2022-12-29T13:44:27;7.61;74.34
75164;HTU21D;63746;45.402;37.922;2022-12-29T13:46:54;7.58;74.38
75164;HTU21D;63746;45.402;37.922;2022-12-29T13:49:23;7.53;74.44
75164;HTU21D;63746;45.402;37.922;2022-12-29T13:51:58;7.52;74.51
75164;HTU21D;63746;45.402;37.922;2022-12-29T13:54:55;7.50;74.48
75164;HTU21D;63746;45.402;37.922;2022-12-29T13:57:38;7.47;74.44
75164;HTU21D;63746;45.402;37.922;2022-12-29T14:00:15;7.43;74.41
75164;HTU21D;63746;45.402;37.922;2022-12-29T14:07:57;7.29;74.54
75164;HTU21D;63746;45.402;37.922;2022-12-29T14:15:44;7.18;74.62
75164;HTU21D;63746;45.402;37.922;2022-12-29T14:18:11;7.15;74.60
75164;HTU21D;63746;45.402;37.922;2022-12-29T14:21:08;7.11;74.57
75164;HTU21D;63746;45.402;37.922;2022-12-29T14:23:41;7.07;74.63
75164;HTU21D;63746;45.402;37.922;2022-12-29T14:34:25;6.93;74.57
75164;HTU21D;63746;45.402;37.922;2022-12-29T14:37:01;6.89;74.68
75164;HTU21D;63746;45.402;37.922;2022-12-29T14:44:49;6.81;74.81
75164;HTU21D;63746;45.402;37.922;2022-12-29T14:52:30;6.83;75.13
75164;HTU21D;63746;45.402;37.922;2022-12-29T14:57:59;6.87;75.15
75164;HTU21D;63746;45.402;37.922;2022-12-29T15:00:35;6.87;75.11
75164;HTU21D;63746;45.402;37.922;2022-12-29T15:03:07;6.88;75.12
75164;HTU21D;63746;45.402;37.922;2022-12-29T15:05:55;6.90;75.11
75164;HTU21D;63746;45.402;37.922;2022-12-29T15:08:26;6.89;75.07
75164;HTU21D;63746;45.402;37.922;2022-12-29T15:11:00;6.90;75.05
75164;HTU21D;63746;45.402;37.922;2022-12-29T15:13:39;6.90;75.02
75164;HTU21D;63746;45.402;37.922;2022-12-29T15:16:25;6.90;75.02
75164;HTU21D;63746;45.402;37.922;2022-12-29T15:18:53;6.90;75.00
75164;HTU21D;63746;45.402;37.922;2022-12-29T15:21:26;6.90;74.96
75164;HTU21D;63746;45.402;37.922;2022-12-29T15:23:53;6.88;74.86
75164;HTU21D;63746;45.402;37.922;2022-12-29T15:26:20;6.86;74.83
75164;HTU21D;63746;45.402;37.922;2022-12-29T15:28:49;6.83;74.54
75164;HTU21D;63746;45.402;37.922;2022-12-29T15:31:20;6.78;74.76
75164;HTU21D;63746;45.402;37.922;2022-12-29T15:33:50;6.73;74.82
75164;HTU21D;63746;45.402;37.922;2022-12-29T15:36:22;6.71;74.89
75164;HTU21D;63746;45.402;37.922;2022-12-29T15:38:52;6.70;74.97
75164;HTU21D;63746;45.402;37.922;2022-12-29T15:41:42;6.69;74.96
75164;HTU21D;63746;45.402;37.922;2022-12-29T15:58:43;7.70;73.19
75164;HTU21D;63746;45.402;37.922;2022-12-29T16:01:33;7.61;73.29
75164;HTU21D;63746;45.402;37.922;2022-12-29T16:04:04;7.47;73.51
75164;HTU21D;63746;45.402;37.922;2022-12-29T16:06:33;7.37;73.73
75164;HTU21D;63746;45.402;37.922;2022-12-29T16:09:03;7.24;73.95
75164;HTU21D;63746;45.402;37.922;2022-12-29T16:11:38;7.16;74.16
75164;HTU21D;63746;45.402;37.922;2022-12-29T16:14:14;7.09;74.31
75164;HTU21D;63746;45.402;37.922;2022-12-29T16:16:42;7.03;74.49
75164;HTU21D;63746;45.402;37.922;2022-12-29T16:19:20;6.99;74.61
75164;HTU21D;63746;45.402;37.922;2022-12-29T16:21:48;6.95;74.73
75164;HTU21D;63746;45.402;37.922;2022-12-29T16:24:20;6.94;74.81
75164;HTU21D;63746;45.402;37.922;2022-12-29T16:26:53;6.93;74.86
75164;HTU21D;63746;45.402;37.922;2022-12-29T16:29:23;6.90;74.83
75164;HTU21D;63746;45.402;37.922;2022-12-29T16:31:55;6.89;74.85
75164;HTU21D;63746;45.402;37.922;2022-12-29T16:34:34;6.87;74.78
75164;HTU21D;63746;45.402;37.922;2022-12-29T16:37:31;6.85;74.67
75164;HTU21D;63746;45.402;37.922;2022-12-29T16:42:47;6.79;74.63
75164;HTU21D;63746;45.402;37.922;2022-12-29T16:50:32;6.71;74.68
75164;HTU21D;63746;45.402;37.922;2022-12-29T16:53:00;6.70;74.71
75164;HTU21D;63746;45.402;37.922;2022-12-29T16:55:28;6.67;74.70
75164;HTU21D;63746;45.402;37.922;2022-12-29T16:57:55;6.65;74.78
75164;HTU21D;63746;45.402;37.922;2022-12-29T17:00:26;6.65;74.70
75164;HTU21D;63746;45.402;37.922;2022-12-29T17:02:57;6.63;74.64
75164;HTU21D;63746;45.402;37.922;2022-12-29T17:05:24;6.61;74.62
75164;HTU21D;63746;45.402;37.922;2022-12-29T17:07:52;6.58;74.57
75164;HTU21D;63746;45.402;37.922;2022-12-29T17:10:19;6.57;74.69
75164;HTU21D;63746;45.402;37.922;2022-12-29T17:12:47;6.54;74.73
75164;HTU21D;63746;45.402;37.922;2022-12-29T17:15:15;6.54;74.35
75164;HTU21D;63746;45.402;37.922;2022-12-29T17:17:49;6.51;74.67
75164;HTU21D;63746;45.402;37.922;2022-12-29T17:22:44;6.49;74.84
75164;HTU21D;63746;45.402;37.922;2022-12-29T17:25:13;6.50;74.93
75164;HTU21D;63746;45.402;37.922;2022-12-29T17:30:20;6.52;74.86
75164;HTU21D;63746;45.402;37.922;2022-12-29T17:32:52;6.53;74.88
75164;HTU21D;63746;45.402;37.922;2022-12-29T17:35:20;6.54;74.90
75164;HTU21D;63746;45.402;37.922;2022-12-29T17:37:50;6.55;74.86
75164;HTU21D;63746;45.402;37.922;2022-12-29T17:40:19;6.57;74.84
75164;HTU21D;63746;45.402;37.922;2022-12-29T17:42:48;6.57;74.79
75164;HTU21D;63746;45.402;37.922;2022-12-29T17:45:17;6.57;74.74
75164;HTU21D;63746;45.402;37.922;2022-12-29T17:47:44;6.56;74.71
75164;HTU21D;63746;45.402;37.922;2022-12-29T17:50:14;6.56;74.73
75164;HTU21D;63746;45.402;37.922;2022-12-29T17:52:42;6.55;74.73
75164;HTU21D;63746;45.402;37.922;2022-12-29T17:55:16;6.57;74.76
75164;HTU21D;63746;45.402;37.922;2022-12-29T17:57:43;6.56;74.73
75164;HTU21D;63746;45.402;37.922;2022-12-29T18:00:22;6.55;74.64
75164;HTU21D;63746;45.402;37.922;2022-12-29T18:02:49;6.55;74.64
75164;HTU21D;63746;45.402;37.922;2022-12-29T18:05:24;6.54;74.63
75164;HTU21D;63746;45.402;37.922;2022-12-29T18:07:53;6.52;74.71
75164;HTU21D;63746;45.402;37.922;2022-12-29T18:10:22;6.52;74.73
75164;HTU21D;63746;45.402;37.922;2022-12-29T18:12:49;6.53;74.50
75164;HTU21D;63746;45.402;37.922;2022-12-29T18:17:44;6.49;74.81
75164;HTU21D;63746;45.402;37.922;2022-12-29T18:20:11;6.46;74.90
75164;HTU21D;63746;45.402;37.922;2022-12-29T18:22:37;6.46;74.92
75164;HTU21D;63746;45.402;37.922;2022-12-29T18:25:24;6.49;74.90
75164;HTU21D;63746;45.402;37.922;2022-12-29T18:27:52;6.49;74.93
75164;HTU21D;63746;45.402;37.922;2022-12-29T18:30:19;6.52;74.92
75164;HTU21D;63746;45.402;37.922;2022-12-29T18:32:46;6.59;75.16
75164;HTU21D;63746;45.402;37.922;2022-12-29T18:35:38;6.64;74.97